Flight Track Log - Related Links

Times and Time Zones

All times are in EDT time to prevent confusion due to time zone crossing. See the JZA8279 flight status page for this flight to view local times or setup timezone preferences in your user account.

Time Position Orientation Groundspeed Altitude Reporting Facility
EDT Latitude Longitude Course Direction KTS MPH feet Rate Location/Type
Mon 01:51:26 PM 54.2500 -130.4833 136° Southeast 110 127 1,500  Level Vancouver Center
Mon 01:52:26 PM 54.2500 -130.5500 270° West 150 173 3,300 1,800 Climbing Vancouver Center
Mon 01:53:26 PM 54.2333 -130.5333 150° Southeast 110 127 5,100 1,750 Climbing Vancouver Center
Mon 01:54:26 PM 54.2167 -130.4833 120° Southeast 130 150 6,800 1,750 Climbing Vancouver Center
Mon 01:55:26 PM 54.2000 -130.4167 113° Southeast 140 161 8,600 1,700 Climbing Vancouver Center
Mon 01:56:00 PM 53.9938 -129.9604 136° Southeast  Level Estimated
Mon 01:56:26 PM 54.1833 -130.3667 120° Southeast 150 173 10,200  Level Vancouver Center
Mon 01:57:00 PM 53.9428 -129.8769 136° Southeast  Level Estimated
Mon 01:57:26 PM 54.1667 -130.3000 113° Southeast 150 173 11,300  Level Vancouver Center
Mon 01:58:26 PM 54.1333 -130.2333 130° Southeast 170 196 12,000 800 Climbing Vancouver Center
Mon 01:59:26 PM 54.1000 -130.1833 139° Southeast 190 219 12,900 950 Climbing Vancouver Center
Mon 02:00:26 PM 54.0500 -130.1167 142° Southeast 200 230 13,900 950 Climbing Vancouver Center
Mon 02:01:26 PM 54.0167 -130.0500 130° Southeast 200 230 14,800 900 Climbing Vancouver Center
Mon 02:02:26 PM 53.9833 -129.9667 124° Southeast 200 230 15,700 900 Climbing Vancouver Center
Mon 02:03:26 PM 53.9333 -129.9000 142° Southeast 210 242 16,600 900 Climbing Vancouver Center
Mon 02:04:26 PM 53.9000 -129.8333 130° Southeast 210 242 17,500 950 Climbing Vancouver Center
Mon 02:05:26 PM 53.8500 -129.7667 142° Southeast 210 242 18,500 900 Climbing Vancouver Center
Mon 02:06:26 PM 53.8000 -129.6833 135° Southeast 210 242 19,300 800 Climbing Vancouver Center
Mon 02:07:26 PM 53.7667 -129.6167 130° Southeast 210 242 20,100 750 Climbing Vancouver Center
Mon 02:08:26 PM 53.7333 -129.5500 130° Southeast 210 242 20,800 450 Climbing Vancouver Center
Mon 02:09:26 PM 53.6833 -129.5000 149° Southeast 220 253 21,000 100 Climbing Vancouver Center
Mon 02:10:26 PM 53.6333 -129.4000 130° Southeast 230 265 21,000  Level Vancouver Center
Mon 02:11:26 PM 53.5833 -129.3167 135° Southeast 250 288 21,000  Level Vancouver Center
Mon 02:12:26 PM 53.5500 -129.2167 119° Southeast 260 299 21,000  Level Vancouver Center
Mon 02:13:26 PM 53.4833 -129.1333 143° Southeast 260 299 21,000  Level Vancouver Center
Mon 02:14:26 PM 53.4333 -129.0667 142° Southeast 260 299 21,000  Level Vancouver Center
Mon 02:15:26 PM 53.3833 -128.9833 135° Southeast 260 299 21,000  Level Vancouver Center
Mon 02:16:26 PM 53.3167 -128.8833 138° Southeast 270 311 21,000  Level Vancouver Center
Mon 02:17:26 PM 53.2833 -128.8000 124° Southeast 270 311 21,000  Level Vancouver Center
Mon 02:18:26 PM 53.2167 -128.7000 138° Southeast 270 311 21,000  Level Vancouver Center
Mon 02:19:26 PM 53.1667 -128.6167 135° Southeast 270 311 21,000  Level Vancouver Center
Mon 02:20:26 PM 53.1000 -128.5333 143° Southeast 270 311 21,000  Level Vancouver Center
Mon 02:21:26 PM 53.0500 -128.4333 130° Southeast 270 311 21,000  Level Vancouver Center
Mon 02:22:26 PM 53.0000 -128.3500 135° Southeast 270 311 21,000  Level Vancouver Center
Mon 02:23:26 PM 52.9500 -128.2667 135° Southeast 280 322 21,000  Level Vancouver Center
Mon 02:24:26 PM 52.8833 -128.1667 138° Southeast 280 322 21,000  Level Vancouver Center
Mon 02:25:26 PM 52.8333 -128.0833 135° Southeast 270 311 21,000  Level Vancouver Center
Mon 02:26:26 PM 52.7667 -128.0000 143° Southeast 270 311 21,000  Level Vancouver Center
Mon 02:27:26 PM 52.7167 -127.9333 141° Southeast 270 311 21,000  Level Vancouver Center
Mon 02:28:26 PM 52.6667 -127.8167 125° Southeast 270 311 21,000  Level Vancouver Center
Mon 02:29:26 PM 52.6167 -127.7500 141° Southeast 270 311 21,000  Level Vancouver Center
Mon 02:30:26 PM 52.5667 -127.6667 135° Southeast 260 299 21,000  Level Vancouver Center
Mon 02:31:26 PM 52.5000 -127.5833 143° Southeast 270 311 21,000  Level Vancouver Center
Mon 02:32:26 PM 52.4500 -127.5000 135° Southeast 270 311 21,000  Level Vancouver Center
Mon 02:33:26 PM 52.3833 -127.4167 143° Southeast 270 311 21,000  Level Vancouver Center
Mon 02:34:26 PM 52.3500 -127.3167 119° Southeast 270 311 21,000  Level Vancouver Center
Mon 02:35:26 PM 52.3000 -127.2333 134° Southeast 270 311 21,000  Level Vancouver Center
Mon 02:36:26 PM 52.2333 -127.1833 155° Southeast 270 311 21,000  Level Vancouver Center
Mon 02:37:26 PM 52.1833 -127.1000 134° Southeast 260 299 21,000  Level Vancouver Center
Mon 02:38:26 PM 52.1333 -127.0000 129° Southeast 260 299 21,000  Level Vancouver Center
Mon 02:39:26 PM 52.0667 -126.9167 142° Southeast 260 299 21,000  Level Vancouver Center
Mon 02:40:26 PM 52.0167 -126.8333 134° Southeast 260 299 21,000  Level Vancouver Center
Mon 02:41:26 PM 51.9667 -126.7833 148° Southeast 260 299 21,000  Level Vancouver Center
Mon 02:42:26 PM 51.9000 -126.7000 142° Southeast 260 299 21,000  Level Vancouver Center
Mon 02:43:26 PM 51.8667 -126.6167 123° Southeast 260 299 21,000  Level Vancouver Center
Mon 02:44:26 PM 51.8167 -126.5333 134° Southeast 260 299 21,000  Level Vancouver Center
Mon 02:45:26 PM 51.7667 -126.4500 134° Southeast 250 288 21,000  Level Vancouver Center
Mon 02:46:26 PM 51.7167 -126.3833 140° Southeast 250 288 21,000  Level Vancouver Center
Mon 02:47:26 PM 51.6500 -126.3000 142° Southeast 250 288 21,000  Level Vancouver Center
Mon 02:48:26 PM 51.6000 -126.2167 134° Southeast 250 288 21,000  Level Vancouver Center
Mon 02:49:26 PM 51.5500 -126.1667 148° Southeast 250 288 21,000  Level Vancouver Center
Mon 02:50:26 PM 51.5000 -126.0833 134° Southeast 250 288 21,000  Level Vancouver Center
Mon 02:51:26 PM 51.4333 -126.0000 142° Southeast 250 288 21,000  Level Vancouver Center
Mon 02:52:26 PM 51.3833 -125.9333 140° Southeast 250 288 21,000  Level Vancouver Center
Mon 02:53:26 PM 51.3333 -125.8500 134° Southeast 250 288 21,000  Level Vancouver Center
Mon 02:54:26 PM 51.3000 -125.7667 123° Southeast 240 276 21,000  Level Vancouver Center
Mon 02:55:26 PM 51.2500 -125.7167 148° Southeast 240 276 21,000  Level Vancouver Center
Mon 02:56:26 PM 51.2000 -125.6333 134° Southeast 240 276 21,000  Level Vancouver Center
Mon 02:57:26 PM 51.1500 -125.5500 134° Southeast 250 288 21,000  Level Vancouver Center
Mon 02:58:26 PM 51.1000 -125.5000 148° Southeast 240 276 21,000  Level Vancouver Center
Mon 02:59:26 PM 51.0500 -125.4167 134° Southeast 240 276 21,000  Level Vancouver Center
Mon 03:00:26 PM 51.0000 -125.3667 148° Southeast 240 276 21,000  Level Vancouver Center
Mon 03:01:26 PM 50.9500 -125.2833 134° Southeast 240 276 21,000  Level Vancouver Center
Mon 03:02:26 PM 50.9000 -125.2000 134° Southeast 240 276 21,000  Level Vancouver Center
Mon 03:03:26 PM 50.8333 -125.1500 155° Southeast 250 288 21,000  Level Vancouver Center
Mon 03:04:26 PM 50.7833 -125.0667 133° Southeast 250 288 21,000  Level Vancouver Center
Mon 03:05:26 PM 50.7333 -124.9833 133° Southeast 250 288 21,000  Level Vancouver Center
Mon 03:06:26 PM 50.6833 -124.9333 148° Southeast 250 288 21,000  Level Vancouver Center
Mon 03:07:26 PM 50.6333 -124.8500 133° Southeast 250 288 21,000  Level Vancouver Center
Mon 03:08:26 PM 50.5833 -124.7667 133° Southeast 240 276 21,000  Level Vancouver Center
Mon 03:09:26 PM 50.5333 -124.7167 148° Southeast 250 288 21,000  Level Vancouver Center
Mon 03:10:26 PM 50.4667 -124.6333 141° Southeast 250 288 21,000  Level Vancouver Center
Mon 03:11:26 PM 50.4167 -124.5667 140° Southeast 250 288 21,000  Level Vancouver Center
Mon 03:12:26 PM 50.3667 -124.5000 140° Southeast 250 288 21,000  Level Vancouver Center
Mon 03:13:26 PM 50.3167 -124.4333 140° Southeast 250 288 21,000  Level Vancouver Center
Mon 03:14:26 PM 50.2667 -124.3500 133° Southeast 250 288 21,000  Level Vancouver Center
Mon 03:15:26 PM 50.2167 -124.3000 147° Southeast 250 288 21,000  Level Vancouver Center
Mon 03:16:26 PM 50.1500 -124.2167 141° Southeast 250 288 21,000  Level Vancouver Center
Mon 03:17:26 PM 50.1000 -124.1333 133° Southeast 250 288 21,000  Level Vancouver Center
Mon 03:18:26 PM 50.0500 -124.0667 139° Southeast 250 288 21,000 -450 Level Vancouver Center
Mon 03:19:26 PM 50.0000 -124.0000 139° Southeast 260 299 20,100 -1,150 Descending Vancouver Center
Mon 03:20:26 PM 49.9333 -123.9333 147° Southeast 270 311 18,700 -1,350 Descending Vancouver Center
Mon 03:21:26 PM 49.8833 -123.8500 133° Southeast 280 322 17,400 -1,350 Descending Vancouver Center
Mon 03:22:26 PM 49.8167 -123.7667 141° Southeast 270 311 16,000 -1,450 Descending Vancouver Center
Mon 03:23:26 PM 49.7667 -123.7000 139° Southeast 260 299 14,500 -1,400 Descending Vancouver Center
Mon 03:24:26 PM 49.7000 -123.6500 154° Southeast 260 299 13,200 -1,400 Descending Vancouver Center
Mon 03:25:26 PM 49.6333 -123.6167 162° South 230 265 11,700 -1,350 Descending Vancouver Center
Mon 03:26:26 PM 49.5833 -123.6000 168° South 230 265 10,500 -1,250 Descending Vancouver Center
Mon 03:27:26 PM 49.5167 -123.5667 162° South 230 265 9,200 -1,200 Descending Vancouver Center
Mon 03:28:26 PM 49.4500 -123.5500 171° South 220 253 8,100 -1,100 Descending Vancouver Center
Mon 03:29:26 PM 49.4000 -123.5167 157° South 210 242 7,000 -1,150 Descending Vancouver Center
Mon 03:30:26 PM 49.3500 -123.5000 168° South 180 207 5,800 -1,150 Descending Vancouver Center
Mon 03:31:26 PM 49.3167 -123.4667 147° Southeast 170 196 4,700 -1,050 Descending Vancouver Center
Mon 03:32:26 PM 49.2500 -123.4333 162° South 190 219 3,700 -1,050 Descending Vancouver Center
Mon 03:33:26 PM 49.2167 -123.4167 162° South 190 219 2,600 -900 Descending Vancouver Center
Mon 03:34:26 PM 49.2000 -123.3333 107° East 170 196 1,900 -750 Descending Vancouver Center
Mon 03:35:26 PM 49.2000 -123.2667 90° East 160 184 1,100 -800 Descending Vancouver Center

Login

Don't have an account? Register now (free) for customized features, flight alerts, and more!